Time;durP1;ratioP1;P1;durP2;ratioP2;P2;SDS_P1;SDS_P2;PMS_P1;PMS_P2;Temp;Humidity;BMP_temperature;BMP_pressure;BME280_temperature;BME280_humidity;BME280_pressure;Samples;Min_cycle;Max_cycle;Signal;HPM_P1;HPM_P2
2022/04/23 00:01:31;;;;;;;17.15;15.35;;;;;;;10.33;69.75;100386.34;5073350;28;20538;-54
2022/04/23 00:03:57;;;;;;;18.65;16.27;;;;;;;10.30;69.77;100385.72;5073374;28;20060;-55
2022/04/23 00:06:22;;;;;;;20.38;16.13;;;;;;;10.28;70.19;100387.69;5073173;28;20441;-54
2022/04/23 00:08:47;;;;;;;20.40;15.80;;;;;;;10.25;70.09;100387.94;5073847;28;20060;-54
2022/04/23 00:11:12;;;;;;;20.75;15.48;;;;;;;10.21;70.21;100391.78;5055571;28;20656;-55
2022/04/23 00:13:38;;;;;;;17.70;15.73;;;;;;;10.19;70.50;100384.81;5073050;28;20040;-54
2022/04/23 00:16:05;;;;;;;20.27;15.93;;;;;;;10.09;70.53;100386.53;5055209;28;20823;-55
2022/04/23 00:18:30;;;;;;;17.50;15.70;;;;;;;10.12;71.08;100386.25;5073152;28;20033;-55
2022/04/23 00:20:56;;;;;;;18.50;16.60;;;;;;;10.11;70.85;100400.53;5072948;28;20032;-54
2022/04/23 00:23:21;;;;;;;18.80;15.82;;;;;;;10.07;71.01;100390.28;5073104;28;20067;-55
2022/04/23 00:25:50;;;;;;;23.55;16.83;;;;;;;10.07;71.33;100390.28;5072638;28;20044;-54
2022/04/23 00:28:17;;;;;;;17.85;15.85;;;;;;;10.04;71.12;100393.19;5093268;28;20126;-54
2022/04/23 00:30:42;;;;;;;19.88;15.90;;;;;;;10.02;71.28;100395.13;5093145;28;20036;-55
2022/04/23 00:33:10;;;;;;;19.47;16.07;;;;;;;9.99;71.56;100396.19;5086550;28;20036;-55
2022/04/23 00:35:36;;;;;;;22.02;16.48;;;;;;;9.92;71.49;100387.06;5072956;28;20278;-54
2022/04/23 00:38:02;;;;;;;21.65;16.60;;;;;;;9.92;71.90;100395.03;5072634;28;20506;-54
2022/04/23 00:40:27;;;;;;;19.20;16.38;;;;;;;9.91;71.47;100393.31;5072859;28;20067;-54
2022/04/23 00:42:57;;;;;;;17.17;15.37;;;;;;;9.89;71.41;100393.47;5072935;28;20246;-55
2022/04/23 00:45:24;;;;;;;19.80;16.17;;;;;;;9.85;72.29;100385.88;5073063;28;20274;-54
2022/04/23 00:47:50;;;;;;;19.75;16.40;;;;;;;9.81;72.46;100380.81;5072535;28;20402;-55
2022/04/23 00:50:18;;;;;;;20.80;16.55;;;;;;;9.79;72.83;100387.22;5072771;28;20048;-55
2022/04/23 00:52:43;;;;;;;18.38;15.73;;;;;;;9.78;72.67;100388.19;5072627;28;20382;-55
2022/04/23 00:55:09;;;;;;;17.77;15.80;;;;;;;9.76;72.88;100382.19;5074115;28;20652;-54
2022/04/23 00:57:35;;;;;;;19.88;15.88;;;;;;;9.74;72.85;100384.09;5077165;28;20071;-55
2022/04/23 01:00:03;;;;;;;22.00;16.90;;;;;;;9.72;72.92;100381.56;5076485;28;20601;-54
2022/04/23 01:02:29;;;;;;;19.20;16.45;;;;;;;9.69;73.33;100383.63;5076763;28;20098;-54
2022/04/23 01:04:54;;;;;;;20.88;17.80;;;;;;;9.66;73.48;100391.81;5076711;28;20037;-55
2022/04/23 01:07:20;;;;;;;18.58;16.67;;;;;;;9.61;73.76;100385.09;5076628;28;20102;-55
2022/04/23 01:09:45;;;;;;;21.55;17.40;;;;;;;9.57;73.82;100388.91;5076473;28;20056;-55
2022/04/23 01:12:11;;;;;;;20.85;17.60;;;;;;;9.58;73.71;100384.50;5076505;28;20048;-55
2022/04/23 01:14:58;;;;;;;19.48;17.45;;;;;;;9.59;73.16;100384.38;5076306;28;20032;-54
2022/04/23 01:17:23;;;;;;;21.55;17.80;;;;;;;9.55;73.78;100388.22;5076257;28;20058;-54
2022/04/23 01:19:48;;;;;;;19.90;17.83;;;;;;;9.53;74.34;100386.66;5076225;28;20033;-54
2022/04/23 01:22:15;;;;;;;19.17;17.17;;;;;;;9.52;74.34;100387.63;5076505;28;20375;-54
2022/04/23 01:24:41;;;;;;;21.83;18.17;;;;;;;9.49;74.20;100382.56;5076542;28;20276;-54
2022/04/23 01:27:07;;;;;;;19.60;17.48;;;;;;;9.46;74.49;100381.00;5075917;28;20055;-54
2022/04/23 01:29:33;;;;;;;22.67;18.60;;;;;;;9.46;74.62;100388.97;5076363;28;20037;-54
2022/04/23 01:31:58;;;;;;;21.80;18.80;;;;;;;9.44;74.67;100388.22;5076162;28;20488;-54
2022/04/23 01:34:24;;;;;;;21.60;18.73;;;;;;;9.44;74.83;100393.50;5075754;28;20036;-54
2022/04/23 01:36:49;;;;;;;23.67;18.52;;;;;;;9.41;74.75;100388.47;5075980;28;20033;-55
2022/04/23 01:39:14;;;;;;;21.80;18.40;;;;;;;9.40;75.34;100392.09;5075976;28;20032;-54
2022/04/23 01:41:40;;;;;;;21.40;19.10;;;;;;;9.40;74.89;100392.09;5076263;28;20283;-54
2022/04/23 01:44:05;;;;;;;22.15;19.83;;;;;;;9.40;75.16;100387.63;5076485;28;20064;-54
2022/04/23 01:46:30;;;;;;;21.57;18.53;;;;;;;9.39;74.85;100391.25;5076002;28;20454;-53
2022/04/23 01:48:55;;;;;;;23.30;19.25;;;;;;;9.38;75.29;100392.19;5087332;28;20282;-54
2022/04/23 01:51:21;;;;;;;24.00;19.08;;;;;;;9.37;75.53;100398.47;5096157;28;20047;-54
2022/04/23 01:53:46;;;;;;;22.67;19.37;;;;;;;9.36;75.58;100388.84;5096216;28;20093;-54
2022/04/23 01:56:11;;;;;;;22.38;19.98;;;;;;;9.35;75.75;100395.09;5076422;28;20286;-55
2022/04/23 01:58:37;;;;;;;23.67;20.60;;;;;;;9.36;76.01;100399.44;5075845;28;20405;-55
2022/04/23 02:01:02;;;;;;;25.08;19.83;;;;;;;9.34;75.64;100393.44;5075415;28;20115;-55
2022/04/23 02:03:29;;;;;;;23.23;19.88;;;;;;;9.36;76.07;100394.13;5075523;28;20045;-55
2022/04/23 02:05:55;;;;;;;23.75;20.00;;;;;;;9.35;75.83;100394.25;5074389;28;20041;-55
2022/04/23 02:08:20;;;;;;;25.13;21.20;;;;;;;9.35;75.29;100399.56;5074612;28;20088;-55
2022/04/23 02:10:47;;;;;;;22.60;20.17;;;;;;;9.33;75.75;100399.69;5075497;28;20028;-55
2022/04/23 02:13:12;;;;;;;23.50;20.60;;;;;;;9.31;76.17;100398.97;5075255;28;20036;-55
2022/04/23 02:15:40;;;;;;;25.35;21.90;;;;;;;9.32;76.63;100399.78;5075543;28;20048;-54
2022/04/23 02:18:06;;;;;;;24.55;21.58;;;;;;;9.28;76.33;100391.25;5075262;28;20509;-54
2022/04/23 02:20:32;;;;;;;24.88;21.85;;;;;;;9.25;76.77;100389.66;5074942;28;20040;-55
2022/04/23 02:22:57;;;;;;;24.52;21.95;;;;;;;9.25;76.76;100400.25;5075236;28;20056;-54
2022/04/23 02:25:22;;;;;;;24.95;22.25;;;;;;;9.25;76.80;100396.78;5074849;28;20047;-55
2022/04/23 02:27:49;;;;;;;24.35;21.70;;;;;;;9.24;77.01;100387.13;5075223;28;20041;-55
2022/04/23 02:30:16;;;;;;;25.17;22.48;;;;;;;9.23;76.67;100388.13;5075292;28;20068;-55
2022/04/23 02:32:42;;;;;;;23.73;21.23;;;;;;;9.23;77.29;100394.25;5072640;28;20047;-55
2022/04/23 02:35:08;;;;;;;24.48;21.98;;;;;;;9.20;77.30;100397.13;5075256;28;20032;-54
2022/04/23 02:37:34;;;;;;;25.88;23.02;;;;;;;9.20;77.40;100394.47;5074933;28;20486;-55
2022/04/23 02:40:01;;;;;;;26.88;23.80;;;;;;;9.19;77.83;100395.47;5075426;28;20035;-55
2022/04/23 02:42:26;;;;;;;26.00;23.23;;;;;;;9.20;77.79;100391.00;5075280;28;20039;-54
2022/04/23 02:44:51;;;;;;;25.90;22.97;;;;;;;9.19;77.58;100390.16;5075287;28;20393;-55
2022/04/23 02:47:17;;;;;;;26.83;23.87;;;;;;;9.17;77.86;100392.06;5074956;28;20309;-55
2022/04/23 02:49:42;;;;;;;27.33;24.00;;;;;;;9.16;77.98;100389.53;5075023;28;20278;-54
2022/04/23 02:52:07;;;;;;;28.85;25.83;;;;;;;9.16;78.06;100389.53;5074423;28;20089;-54
2022/04/23 02:54:33;;;;;;;27.70;24.70;;;;;;;9.15;78.14;100382.56;5074691;28;20033;-55
2022/04/23 02:56:58;;;;;;;28.07;24.87;;;;;;;9.13;78.31;100388.00;5073668;28;20036;-54
2022/04/23 02:59:23;;;;;;;29.10;26.00;;;;;;;9.12;78.81;100385.47;5072017;28;20306;-55
2022/04/23 03:01:48;;;;;;;30.17;25.45;;;;;;;9.10;78.40;100382.09;5072579;28;20648;-54
2022/04/23 03:04:15;;;;;;;28.77;25.55;;;;;;;9.11;78.56;100378.47;5073031;28;20043;-54
2022/04/23 03:06:40;;;;;;;31.15;24.92;;;;;;;9.09;78.83;100373.28;5072672;28;20029;-54
2022/04/23 03:09:05;;;;;;;28.58;25.40;;;;;;;9.08;78.72;100377.75;5072420;28;20070;-54
2022/04/23 03:11:31;;;;;;;29.52;24.88;;;;;;;9.08;78.87;100377.75;5072751;28;20043;-54
2022/04/23 03:13:58;;;;;;;29.85;26.30;;;;;;;9.07;78.80;100372.56;5074103;28;20394;-55
2022/04/23 03:16:27;;;;;;;31.75;26.83;;;;;;;9.05;79.18;100379.78;5074121;28;20033;-55
2022/04/23 03:18:53;;;;;;;29.58;26.48;;;;;;;9.03;79.17;100376.44;5073797;28;20589;-55
2022/04/23 03:21:18;;;;;;;30.63;27.30;;;;;;;9.01;79.23;100376.53;5074429;28;20107;-55
2022/04/23 03:23:43;;;;;;;32.97;27.17;;;;;;;9.03;79.18;100373.78;5073246;28;20127;-54
2022/04/23 03:26:09;;;;;;;31.25;27.85;;;;;;;9.01;79.33;100379.19;5074380;28;20040;-55
2022/04/23 03:28:35;;;;;;;31.67;27.75;;;;;;;8.98;79.41;100376.78;5074119;28;20398;-55
2022/04/23 03:31:00;;;;;;;31.55;27.00;;;;;;;8.97;79.35;100377.72;5073896;28;20452;-54
2022/04/23 03:33:26;;;;;;;33.10;27.77;;;;;;;8.98;79.69;100389.19;5074224;28;20092;-55
2022/04/23 03:35:51;;;;;;;32.05;26.65;;;;;;;8.95;79.66;100371.72;5056108;28;20052;-54
2022/04/23 03:38:17;;;;;;;32.43;28.03;;;;;;;8.94;79.70;100372.66;5074377;28;20047;-54
2022/04/23 03:40:42;;;;;;;34.25;28.65;;;;;;;8.93;79.91;100373.66;5074624;28;20287;-54
2022/04/23 03:43:07;;;;;;;32.05;28.60;;;;;;;8.91;79.98;100359.69;5073973;28;20041;-54
2022/04/23 03:45:33;;;;;;;31.17;27.73;;;;;;;8.88;79.82;100370.50;5055756;28;20056;-54
2022/04/23 03:47:58;;;;;;;31.52;27.65;;;;;;;8.87;79.80;100369.66;5073723;28;20279;-54
2022/04/23 03:50:23;;;;;;;30.33;27.02;;;;;;;8.88;80.00;100367.84;5074040;28;20032;-53
2022/04/23 03:52:49;;;;;;;32.92;28.35;;;;;;;8.85;80.05;100368.94;5073762;28;20044;-55
2022/04/23 03:55:15;;;;;;;34.60;28.25;;;;;;;8.84;80.08;100366.38;5073695;28;20033;-55
2022/04/23 03:57:47;;;;;;;31.42;28.00;;;;;;;8.86;80.56;100367.13;5073690;28;20035;-55
2022/04/23 04:00:14;;;;;;;34.05;29.63;;;;;;;8.81;80.59;100363.97;5073779;28;20047;-55
2022/04/23 04:02:40;;;;;;;32.78;28.38;;;;;;;8.81;80.32;100364.84;5073696;28;20043;-54
2022/04/23 04:05:06;;;;;;;32.95;28.90;;;;;;;8.79;80.40;100361.47;5073576;28;20033;-55
2022/04/23 04:07:31;;;;;;;35.05;29.30;;;;;;;8.79;80.76;100358.81;5073684;28;20041;-54
2022/04/23 04:09:59;;;;;;;33.25;29.65;;;;;;;8.78;80.83;100359.78;5073565;28;20041;-54
2022/04/23 04:12:25;;;;;;;33.17;29.63;;;;;;;8.76;80.76;100359.06;5073526;28;20032;-55
2022/04/23 04:14:51;;;;;;;33.70;29.77;;;;;;;8.76;80.98;100358.19;5073521;28;20489;-55
2022/04/23 04:17:16;;;;;;;33.17;29.52;;;;;;;8.73;80.61;100354.00;5073492;28;20040;-54
2022/04/23 04:19:41;;;;;;;34.58;29.85;;;;;;;8.73;80.90;100350.47;5073559;28;20495;-54
2022/04/23 04:22:08;;;;;;;33.13;28.90;;;;;;;8.72;80.78;100348.81;5072785;28;20459;-54
2022/04/23 04:24:34;;;;;;;34.33;30.58;;;;;;;8.70;81.51;100346.28;5072886;28;20033;-55
2022/04/23 04:27:00;;;;;;;33.22;29.63;;;;;;;8.69;81.37;100342.81;5072852;28;20058;-54
2022/04/23 04:29:26;;;;;;;33.65;29.98;;;;;;;8.69;81.47;100349.88;5072621;28;20033;-55
2022/04/23 04:31:51;;;;;;;32.80;29.15;;;;;;;8.70;81.81;100351.56;5073528;28;20071;-54
2022/04/23 04:34:21;;;;;;;32.72;29.20;;;;;;;8.69;81.87;100349.88;5073365;28;20107;-54
2022/04/23 04:36:48;;;;;;;36.92;30.88;;;;;;;8.69;81.89;100344.59;5073635;28;20037;-54
2022/04/23 04:39:15;;;;;;;34.20;29.88;;;;;;;8.69;82.08;100342.81;5073210;28;20035;-55
2022/04/23 04:41:41;;;;;;;33.17;29.67;;;;;;;8.70;82.00;100355.06;5072916;28;20043;-54
2022/04/23 04:44:06;;;;;;;36.25;31.15;;;;;;;8.69;82.20;100348.09;5073393;28;20041;-54
2022/04/23 04:46:33;;;;;;;35.40;31.50;;;;;;;8.69;82.11;100356.03;5073448;28;20055;-53
2022/04/23 04:48:58;;;;;;;34.88;30.75;;;;;;;8.69;82.22;100356.03;5072998;28;20047;-54
2022/04/23 04:51:24;;;;;;;33.83;30.27;;;;;;;8.72;82.08;100359.41;5072949;28;20044;-54
2022/04/23 04:53:53;;;;;;;34.97;31.05;;;;;;;8.73;82.10;100355.78;5073248;28;20036;-54
2022/04/23 04:56:18;;;;;;;34.35;30.40;;;;;;;8.74;82.29;100358.31;5073079;28;20387;-54
2022/04/23 04:58:44;;;;;;;34.42;30.83;;;;;;;8.75;82.52;100365.31;5071502;28;20565;-54
2022/04/23 05:01:10;;;;;;;34.05;29.90;;;;;;;8.75;82.26;100365.31;5054929;28;20044;-54
2022/04/23 05:03:35;;;;;;;35.63;31.38;;;;;;;8.77;82.41;100368.66;5072816;28;20506;-55
2022/04/23 05:06:01;;;;;;;35.90;32.10;;;;;;;8.79;81.92;100368.56;5073196;28;20036;-54
2022/04/23 05:08:26;;;;;;;34.05;30.40;;;;;;;8.79;82.83;100365.91;5071839;28;20570;-54
2022/04/23 05:10:51;;;;;;;34.10;30.00;;;;;;;8.82;82.61;100370.97;5072844;28;20082;-54
2022/04/23 05:13:16;;;;;;;34.00;30.52;;;;;;;8.84;82.53;100371.69;5072959;28;20068;-54
2022/04/23 05:15:45;;;;;;;36.75;31.92;;;;;;;8.86;82.56;100367.97;5073011;28;20425;-55
2022/04/23 05:18:10;;;;;;;36.17;32.00;;;;;;;8.90;82.42;100363.28;5072987;28;20478;-54
2022/04/23 05:20:36;;;;;;;34.03;29.83;;;;;;;8.93;82.30;100371.00;5072648;28;20135;-54
2022/04/23 05:23:01;;;;;;;33.80;30.15;;;;;;;8.96;82.46;100362.81;5072905;28;20514;-54
2022/04/23 05:25:27;;;;;;;34.28;30.35;;;;;;;9.00;82.31;100361.59;5073332;28;20482;-54
2022/04/23 05:27:52;;;;;;;36.95;31.00;;;;;;;9.04;82.01;100367.50;5073062;28;20040;-54
2022/04/23 05:30:17;;;;;;;32.70;29.10;;;;;;;9.08;81.97;100363.66;5063729;28;20053;-54
2022/04/23 05:32:42;;;;;;;33.35;29.90;;;;;;;9.14;81.83;100370.28;5072924;28;20090;-54
2022/04/23 05:35:08;;;;;;;33.92;30.25;;;;;;;9.15;81.91;100366.69;5072746;28;20036;-54
2022/04/23 05:37:34;;;;;;;33.92;30.33;;;;;;;9.18;81.66;100364.63;5072921;28;20188;-54
2022/04/23 05:39:59;;;;;;;35.88;30.88;;;;;;;9.18;81.86;100367.28;5072981;28;20037;-54
2022/04/23 05:42:24;;;;;;;33.22;29.67;;;;;;;9.23;81.66;100370.41;5076050;28;20040;-55
2022/04/23 05:44:50;;;;;;;32.80;29.25;;;;;;;9.24;81.49;100357.97;5076063;28;20121;-55
2022/04/23 05:47:15;;;;;;;32.28;28.20;;;;;;;9.27;81.58;100360.41;5076630;28;20029;-54
2022/04/23 05:49:40;;;;;;;36.70;30.85;;;;;;;9.31;81.45;100363.66;5077008;28;20508;-55
2022/04/23 05:52:06;;;;;;;32.40;28.98;;;;;;;9.34;81.26;100360.75;5076332;28;20036;-55
2022/04/23 05:54:31;;;;;;;32.45;29.05;;;;;;;9.37;81.33;100358.69;5076365;28;20062;-54
2022/04/23 05:56:56;;;;;;;33.25;29.65;;;;;;;9.42;80.97;100367.13;5074927;28;20059;-55
2022/04/23 05:59:25;;;;;;;31.80;28.48;;;;;;;9.45;80.85;100363.41;5075893;28;20474;-55
2022/04/23 06:01:50;;;;;;;33.17;28.20;;;;;;;9.52;80.84;100361.09;5074814;28;20040;-55
2022/04/23 06:04:15;;;;;;;32.42;29.02;;;;;;;9.55;80.53;100359.06;5075947;28;20390;-54
2022/04/23 06:06:41;;;;;;;31.83;28.43;;;;;;;9.56;80.74;100357.22;5075735;28;20033;-54
2022/04/23 06:09:06;;;;;;;30.67;27.50;;;;;;;9.66;80.13;100360.00;5075744;28;20775;-53
2022/04/23 06:11:31;;;;;;;31.60;28.30;;;;;;;9.65;80.09;100348.56;5075632;28;20094;-54
2022/04/23 06:13:56;;;;;;;33.90;29.35;;;;;;;9.76;79.90;100366.25;5070423;28;20043;-54
2022/04/23 06:16:22;;;;;;;31.03;27.73;;;;;;;9.81;79.94;100358.78;5095529;28;20066;-54
2022/04/23 06:18:47;;;;;;;32.13;28.83;;;;;;;9.86;79.33;100361.88;5093136;28;20282;-55
2022/04/23 06:21:12;;;;;;;33.95;27.25;;;;;;;9.92;79.13;100364.03;5079518;28;20481;-54
2022/04/23 06:23:37;;;;;;;30.93;27.63;;;;;;;9.99;78.84;100353.75;5094301;28;20524;-54
2022/04/23 06:26:03;;;;;;;30.25;27.15;;;;;;;10.03;78.70;100349.91;5083129;28;20302;-54
2022/04/23 06:28:28;;;;;;;30.45;27.42;;;;;;;10.09;78.70;100351.19;5064170;28;20489;-54
2022/04/23 06:30:54;;;;;;;31.67;27.83;;;;;;;10.15;78.19;100356.00;5075073;28;20107;-54
2022/04/23 06:33:19;;;;;;;30.33;27.20;;;;;;;10.21;78.00;100362.59;5069420;28;20084;-54
2022/04/23 06:35:44;;;;;;;31.67;27.77;;;;;;;10.28;77.69;100361.97;5081059;28;20421;-54
2022/04/23 06:38:09;;;;;;;30.45;27.25;;;;;;;10.35;77.37;100357.84;5074864;28;20041;-54
2022/04/23 06:40:35;;;;;;;30.90;27.70;;;;;;;10.44;77.10;100358.94;5075134;28;20098;-54
2022/04/23 06:43:01;;;;;;;30.65;27.55;;;;;;;10.52;76.70;100360.91;5074039;28;20044;-54
2022/04/23 06:45:26;;;;;;;30.02;26.85;;;;;;;10.60;76.41;100355.81;5074619;28;20036;-54
2022/04/23 06:48:05;;;;;;;29.20;26.20;;;;;;;10.70;75.87;100355.88;5074832;28;20108;-54
2022/04/23 06:50:32;;;;;;;30.17;26.90;;;;;;;10.80;74.79;100346.13;5074398;28;20448;-54
2022/04/23 06:52:59;;;;;;;28.52;25.58;;;;;;;10.92;74.33;100346.91;5056344;28;20040;-53
2022/04/23 06:55:24;;;;;;;27.50;24.77;;;;;;;11.06;74.80;100353.69;5074430;28;20051;-54
2022/04/23 06:57:50;;;;;;;29.33;26.30;;;;;;;11.20;73.52;100345.34;5074558;28;20041;-54
2022/04/23 07:00:15;;;;;;;28.80;25.90;;;;;;;11.36;73.04;100346.66;5074461;28;20159;-54
2022/04/23 07:02:41;;;;;;;27.90;25.00;;;;;;;11.53;72.11;100350.50;5074467;28;20398;-54
2022/04/23 07:05:07;;;;;;;28.02;25.02;;;;;;;11.72;72.02;100333.72;5083370;28;20121;-56
2022/04/23 07:07:33;;;;;;;27.42;24.63;;;;;;;11.88;70.65;100342.03;5076378;28;20036;-55
2022/04/23 07:09:59;;;;;;;28.63;25.08;;;;;;;12.06;69.80;100338.69;5073584;28;20040;-55
2022/04/23 07:12:24;;;;;;;26.60;23.75;;;;;;;12.24;69.11;100331.72;5073853;28;20039;-55
2022/04/23 07:14:50;;;;;;;27.70;24.90;;;;;;;12.43;68.71;100333.50;5073065;28;20090;-54
2022/04/23 07:17:15;;;;;;;26.85;23.65;;;;;;;12.68;67.69;100329.38;5073185;28;20056;-55
2022/04/23 07:19:41;;;;;;;26.63;23.80;;;;;;;12.89;66.56;100334.53;5072941;28;20397;-55
2022/04/23 07:22:07;;;;;;;25.73;22.92;;;;;;;13.09;66.17;100329.97;5072504;28;20095;-55
2022/04/23 07:24:32;;;;;;;25.77;22.85;;;;;;;13.27;65.88;100329.19;5054525;28;20033;-55
2022/04/23 07:26:59;;;;;;;25.10;22.45;;;;;;;13.48;65.16;100326.31;5074825;28;20054;-57
2022/04/23 07:29:24;;;;;;;24.33;21.83;;;;;;;13.67;64.03;100328.84;5072300;28;20037;-56
2022/04/23 07:31:50;;;;;;;26.63;23.40;;;;;;;13.99;64.22;100321.31;5071488;28;20135;-56
2022/04/23 07:39:44;;;;;;;25.13;22.40;;;;;;;14.35;60.94;100321.28;5071173;28;20413;-55
2022/04/23 07:42:10;;;;;;;23.85;21.42;;;;;;;14.51;60.38;100317.91;5072378;28;20488;-55
2022/04/23 07:44:36;;;;;;;24.00;21.58;;;;;;;14.66;59.66;100318.22;5083864;28;20032;-55
2022/04/23 07:47:04;;;;;;;23.38;20.90;;;;;;;14.74;58.74;100308.41;5091032;28;20032;-55
2022/04/23 07:49:30;;;;;;;23.95;21.45;;;;;;;14.91;57.92;100304.00;5091748;28;20044;-56
2022/04/23 07:51:55;;;;;;;24.25;21.20;;;;;;;15.05;57.54;100309.75;5092006;28;20028;-55
2022/04/23 07:54:21;;;;;;;22.48;20.15;;;;;;;15.17;57.04;100317.31;5055197;28;20501;-56
2022/04/23 07:56:46;;;;;;;21.90;19.70;;;;;;;15.43;57.08;100305.72;5072426;28;20501;-55
2022/04/23 07:59:12;;;;;;;21.90;19.42;;;;;;;15.53;55.29;100309.06;5072354;28;20052;-54
2022/04/23 08:01:37;;;;;;;24.65;20.02;;;;;;;15.52;55.03;100310.09;5077187;28;20032;-55
2022/04/23 08:04:03;;;;;;;23.42;18.88;;;;;;;15.70;55.38;100303.75;5071844;28;20094;-56
2022/04/23 08:06:30;;;;;;;20.48;18.33;;;;;;;15.80;53.93;100303.66;5071887;28;20028;-55
2022/04/23 08:08:55;;;;;;;21.40;19.27;;;;;;;16.02;54.28;100292.31;5074487;28;20037;-54
2022/04/23 08:11:22;;;;;;;20.10;18.10;;;;;;;16.20;53.17;100294.78;5090103;28;20062;-55
2022/04/23 08:13:48;;;;;;;23.83;18.15;;;;;;;16.35;52.43;100292.28;5089774;28;20787;-55
2022/04/23 08:16:14;;;;;;;19.92;17.30;;;;;;;16.43;51.99;100284.22;5076490;28;20044;-55
2022/04/23 08:18:39;;;;;;;19.77;17.77;;;;;;;16.53;51.53;100278.69;5073465;28;20031;-54
2022/04/23 08:21:04;;;;;;;20.27;18.00;;;;;;;16.74;51.33;100282.69;5071868;28;20041;-54
2022/04/23 08:23:33;;;;;;;18.73;16.77;;;;;;;16.78;50.48;100284.84;5071662;28;20052;-55
2022/04/23 08:26:02;;;;;;;21.30;18.20;;;;;;;16.75;50.36;100284.34;5077173;28;20652;-55
2022/04/23 08:31:12;;;;;;;21.23;18.92;;;;;;;16.83;50.12;100287.00;5074098;28;20046;-55
2022/04/23 08:36:22;;;;;;;20.20;18.05;;;;;;;17.17;49.73;100284.06;5071752;28;20039;-55
2022/04/23 08:38:47;;;;;;;18.98;16.98;;;;;;;17.37;49.53;100270.22;5074329;28;20394;-55
2022/04/23 08:41:12;;;;;;;20.05;17.92;;;;;;;17.59;48.86;100273.13;5074185;28;20036;-54
2022/04/23 08:43:38;;;;;;;19.67;17.73;;;;;;;17.84;49.18;100277.31;5071312;28;20052;-55
2022/04/23 08:46:03;;;;;;;19.95;17.85;;;;;;;17.78;47.44;100274.50;5074255;28;20032;-55
2022/04/23 08:48:37;;;;;;;20.25;18.05;;;;;;;17.72;47.92;100281.44;5074129;28;20029;-55
2022/04/23 08:51:05;;;;;;;20.10;17.75;;;;;;;17.80;47.74;100286.72;5071497;28;20062;-55
2022/04/23 08:53:31;;;;;;;21.27;18.95;;;;;;;17.83;47.31;100291.75;5063473;28;20134;-55
2022/04/23 08:55:57;;;;;;;21.63;18.55;;;;;;;17.87;47.19;100292.25;5087379;28;20528;-56
2022/04/23 08:58:23;;;;;;;20.73;18.23;;;;;;;18.10;46.70;100284.19;5089895;28;20040;-56
2022/04/23 09:00:48;;;;;;;23.85;19.23;;;;;;;18.22;47.16;100285.44;5088933;28;20469;-55
2022/04/23 09:03:15;;;;;;;21.02;18.92;;;;;;;18.27;46.06;100298.34;5087995;28;20032;-54
2022/04/23 09:05:43;;;;;;;21.13;18.98;;;;;;;18.25;46.51;100284.22;5091363;28;20044;-55
2022/04/23 09:08:09;;;;;;;21.70;18.00;;;;;;;18.61;46.99;100291.63;5087883;28;20489;-55
2022/04/23 09:10:57;;;;;;;20.50;18.42;;;;;;;18.86;47.01;100297.63;5088092;28;20043;-55
2022/04/23 09:13:27;;;;;;;22.90;19.70;;;;;;;18.88;45.36;100295.56;5087991;28;20047;-55
2022/04/23 09:24:45;;;;;;;21.52;19.23;;;;;;;18.76;46.19;100288.97;5076792;28;20501;-56
2022/04/23 09:27:10;;;;;;;21.42;19.13;;;;;;;18.73;44.96;100292.00;5074664;28;20049;-56
2022/04/23 09:29:35;;;;;;;23.08;20.67;;;;;;;18.59;45.40;100296.38;5076499;28;20159;-56
2022/04/23 09:32:13;;;;;;;23.00;20.53;;;;;;;18.61;45.75;100302.38;5092024;28;20067;-56
2022/04/23 09:34:38;;;;;;;24.02;21.60;;;;;;;18.46;44.62;100297.81;5075588;28;20285;-56
2022/04/23 09:37:05;;;;;;;23.45;20.58;;;;;;;18.50;45.55;100292.91;5091492;28;20417;-56
2022/04/23 09:39:31;;;;;;;25.88;23.25;;;;;;;18.56;45.42;100296.72;5075511;28;20032;-56
2022/04/23 09:42:17;;;;;;;25.00;22.27;;;;;;;18.87;46.27;100296.59;5075104;28;20033;-56
2022/04/23 09:44:43;;;;;;;23.80;21.40;;;;;;;19.03;44.13;100301.81;5075161;28;20037;-56
2022/04/23 09:47:09;;;;;;;23.75;21.42;;;;;;;19.16;44.43;100295.75;5075320;28;20040;-56
2022/04/23 09:49:34;;;;;;;24.67;22.25;;;;;;;19.27;43.19;100283.66;5075558;28;20406;-57
2022/04/23 09:52:00;;;;;;;26.27;22.02;;;;;;;19.52;43.45;100289.56;5088366;28;20393;-56
2022/04/23 09:54:27;;;;;;;24.48;21.30;;;;;;;19.40;43.05;100286.53;5092237;28;21022;-56
2022/04/23 09:56:53;;;;;;;24.48;22.08;;;;;;;19.23;42.90;100298.50;5085426;28;20039;-56
2022/04/23 09:59:18;;;;;;;23.92;21.42;;;;;;;19.32;43.11;100291.19;5093964;28;20477;-56
2022/04/23 10:01:45;;;;;;;22.75;20.33;;;;;;;19.37;43.37;100289.59;5085979;28;20051;-57
2022/04/23 10:04:12;;;;;;;23.83;20.25;;;;;;;19.56;43.01;100280.06;5093762;28;20493;-57
2022/04/23 10:06:42;;;;;;;25.60;21.50;;;;;;;19.85;42.59;100269.41;5091616;28;20055;-57
2022/04/23 10:09:08;;;;;;;24.40;22.00;;;;;;;19.72;42.10;100265.53;5094446;28;20086;-55
2022/04/23 10:11:40;;;;;;;23.67;21.20;;;;;;;19.78;42.24;100270.19;5093934;28;20036;-57
2022/04/23 10:14:07;;;;;;;23.33;20.95;;;;;;;19.98;42.71;100261.44;5089031;28;20048;-57
2022/04/23 10:16:34;;;;;;;23.67;21.17;;;;;;;20.23;41.68;100264.53;5074961;28;20037;-57
2022/04/23 10:19:01;;;;;;;22.92;20.50;;;;;;;20.17;40.95;100264.50;5074949;28;20397;-56
2022/04/23 10:21:30;;;;;;;23.10;20.60;;;;;;;20.06;41.51;100253.22;5074118;28;20071;-56
2022/04/23 10:24:14;;;;;;;23.90;21.60;;;;;;;20.23;42.25;100258.31;5088520;28;20044;-56
2022/04/23 10:26:48;;;;;;;22.15;19.80;;;;;;;20.25;41.79;100256.25;5085804;28;20057;-56
2022/04/23 10:29:20;;;;;;;23.70;21.40;;;;;;;20.18;40.60;100248.13;5086029;28;20040;-56
2022/04/23 10:32:15;;;;;;;23.17;20.77;;;;;;;20.38;41.05;100253.66;5082492;28;20075;-55
2022/04/23 10:34:42;;;;;;;24.52;21.45;;;;;;;20.41;40.09;100264.06;5086401;28;20543;-56
2022/04/23 10:37:29;;;;;;;22.63;20.33;;;;;;;20.59;40.31;100260.06;5073845;28;20135;-55
2022/04/23 10:39:54;;;;;;;23.83;21.33;;;;;;;20.51;40.00;100266.41;5073938;28;20112;-56
2022/04/23 10:42:22;;;;;;;22.37;20.17;;;;;;;20.27;39.75;100263.16;5073569;28;20486;-55
2022/04/23 10:44:48;;;;;;;21.77;19.70;;;;;;;20.21;40.53;100249.59;5076289;28;20037;-56
2022/04/23 10:47:32;;;;;;;22.55;20.25;;;;;;;20.41;41.10;100252.44;5073714;28;20048;-57
2022/04/23 10:50:20;;;;;;;22.50;20.40;;;;;;;20.58;41.35;100261.06;5073799;28;20036;-55
2022/04/23 10:52:46;;;;;;;22.42;20.20;;;;;;;;;;5073427;28;20465;-56
2022/04/23 10:55:13;;;;;;;23.42;21.15;;;;;;;20.62;39.27;100254.25;5073615;28;20123;-56
2022/04/23 10:57:39;;;;;;;23.20;20.88;;;;;;;;;;5073582;28;20044;-56
2022/04/23 11:00:10;;;;;;;21.50;19.48;;;;;;;20.88;39.86;100243.66;5073823;28;20040;-56
2022/04/23 11:02:37;;;;;;;23.73;21.25;;;;;;;21.00;39.13;100243.91;5073353;28;20041;-56
2022/04/23 11:13:38;;;;;;;22.77;20.48;;;;;;;20.77;39.43;100246.91;5073209;28;20042;-56
2022/04/23 11:16:17;;;;;;;22.02;19.80;;;;;;;20.71;39.47;100242.28;5073013;28;20351;-56
2022/04/23 11:18:51;;;;;;;21.38;19.27;;;;;;;20.92;39.65;100235.13;5073240;28;20048;-56
2022/04/23 11:21:23;;;;;;;21.55;19.17;;;;;;;21.04;38.84;100245.16;5073190;28;20044;-57
2022/04/23 11:23:49;;;;;;;21.98;19.63;;;;;;;21.06;38.83;100234.97;5073088;28;20043;-55
2022/04/23 11:26:19;;;;;;;21.10;18.90;;;;;;;21.25;38.36;100232.59;5072559;28;20490;-57
2022/04/23 11:28:46;;;;;;;49.55;29.75;;;;;;;21.33;38.52;100237.78;5073191;28;20099;-55
2022/04/23 11:31:16;;;;;;;20.33;18.23;;;;;;;21.38;37.98;100234.47;5072925;28;20037;-56
2022/04/23 11:33:55;;;;;;;22.35;20.08;;;;;;;21.51;39.11;100242.63;5072938;28;20071;-55
2022/04/23 11:36:27;;;;;;;;;;;;;;;21.62;39.28;100235.81;5077579;28;20036;-56
2022/04/23 11:38:57;;;;;;;21.75;19.58;;;;;;;21.15;38.52;100241.06;5072538;28;19912;-55
2022/04/23 11:41:29;;;;;;;22.10;19.90;;;;;;;21.00;39.52;100238.50;5073198;28;20421;-55